Time;durP1;ratioP1;P1;durP2;ratioP2;P2;SDS_P1;SDS_P2;PMS_P1;PMS_P2;Temp;Humidity;BMP_temperature;BMP_pressure;BME280_temperature;BME280_humidity;BME280_pressure;Samples;Min_cycle;Max_cycle;Signal;HPM_P1;HPM_P2
2021/07/31 00:00:13;;;;;;;3.93;1.50;;;;;;;16.99;61.41;100048.16;690487;28;3539;-56
2021/07/31 00:00:37;;;;;;;3.85;1.40;;;;;;;17.06;61.62;100054.00;690345;28;4499;-51
2021/07/31 00:00:59;;;;;;;4.18;1.40;;;;;;;17.06;61.48;100056.66;690809;28;2261;-56
2021/07/31 00:01:19;;;;;;;4.97;1.50;;;;;;;16.96;61.74;100048.25;692886;28;1183;-51
2021/07/31 00:01:39;;;;;;;6.20;1.60;;;;;;;16.97;61.54;100049.97;693416;28;2187;-52
2021/07/31 00:02:00;;;;;;;4.70;1.60;;;;;;;16.90;62.23;100049.34;694477;28;1206;-53
2021/07/31 00:02:21;;;;;;;4.37;1.70;;;;;;;16.83;62.20;100054.00;691983;28;1462;-53
2021/07/31 00:02:42;;;;;;;4.45;1.60;;;;;;;16.79;62.27;100049.75;691968;28;1120;-53
2021/07/31 00:03:02;;;;;;;4.60;1.67;;;;;;;16.74;63.08;100056.16;691960;28;1041;-54
2021/07/31 00:03:22;;;;;;;5.27;1.70;;;;;;;16.67;62.86;100060.84;691054;28;3978;-56
2021/07/31 00:03:43;;;;;;;4.97;1.50;;;;;;;16.69;64.03;100040.50;690037;28;4397;-56
2021/07/31 00:04:04;;;;;;;4.28;1.48;;;;;;;16.79;63.40;100047.13;690201;28;1266;-52
2021/07/31 00:04:25;;;;;;;4.70;1.50;;;;;;;16.97;61.88;100056.09;694299;28;1154;-51
2021/07/31 00:04:45;;;;;;;4.13;1.30;;;;;;;17.05;61.12;100052.31;694280;28;1718;-56
2021/07/31 00:05:07;;;;;;;5.30;1.30;;;;;;;17.15;60.68;100053.63;694159;28;1445;-52
2021/07/31 00:05:27;;;;;;;5.88;1.50;;;;;;;17.15;60.43;100053.63;694921;28;1123;-53
2021/07/31 00:05:47;;;;;;;3.80;1.50;;;;;;;17.09;60.71;100049.47;691666;28;1119;-55
2021/07/31 00:06:08;;;;;;;4.22;1.50;;;;;;;16.99;60.93;100053.41;690737;28;995;-54
2021/07/31 00:06:28;;;;;;;5.00;1.50;;;;;;;16.83;61.38;100047.88;689842;28;4442;-56
2021/07/31 00:06:48;;;;;;;5.00;1.40;;;;;;;16.76;61.87;100046.41;691491;28;1210;-56
2021/07/31 00:07:09;;;;;;;4.63;1.50;;;;;;;16.75;62.31;100060.50;691982;28;1170;-57
2021/07/31 00:07:29;;;;;;;5.53;1.70;;;;;;;16.81;62.80;100047.94;687859;28;1224;-56
2021/07/31 00:07:50;;;;;;;4.28;1.48;;;;;;;16.77;62.27;100042.84;691440;28;1037;-52
2021/07/31 00:08:10;;;;;;;4.70;1.40;;;;;;;16.73;62.55;100050.00;691753;28;1079;-55
2021/07/31 00:08:31;;;;;;;4.17;1.40;;;;;;;16.71;62.74;100045.72;688945;28;1417;-56
2021/07/31 00:08:51;;;;;;;4.72;1.52;;;;;;;16.61;62.85;100048.72;689238;28;1242;-56
2021/07/31 00:09:12;;;;;;;3.93;1.57;;;;;;;16.56;62.63;100055.97;688332;28;1915;-57
2021/07/31 00:09:32;;;;;;;4.60;1.60;;;;;;;16.52;64.11;100046.47;691547;28;4587;-57
2021/07/31 00:09:52;;;;;;;5.38;1.42;;;;;;;16.51;64.39;100042.94;690905;28;3633;-54
2021/07/31 00:10:13;;;;;;;5.63;1.70;;;;;;;16.66;63.69;100044.13;690947;28;1422;-55
2021/07/31 00:10:35;;;;;;;4.45;1.38;;;;;;;16.73;62.93;100046.53;693517;28;1190;-52
2021/07/31 00:10:57;;;;;;;4.28;1.40;;;;;;;16.81;62.15;100042.66;694035;28;1389;-54
2021/07/31 00:11:17;;;;;;;4.85;1.48;;;;;;;16.77;62.51;100042.84;694579;28;1198;-55
2021/07/31 00:11:37;;;;;;;4.70;1.50;;;;;;;16.84;61.99;100046.94;695221;28;977;-56
2021/07/31 00:11:58;;;;;;;4.93;1.60;;;;;;;16.76;62.11;100046.41;694872;28;1430;-54
2021/07/31 00:12:18;;;;;;;5.13;1.67;;;;;;;16.71;62.29;100048.34;693718;28;1195;-54
2021/07/31 00:12:39;;;;;;;4.80;1.60;;;;;;;16.63;62.96;100048.69;694218;28;4387;-54
2021/07/31 00:12:59;;;;;;;4.45;1.50;;;;;;;16.59;63.23;100041.81;692383;28;2749;-53
2021/07/31 00:13:20;;;;;;;4.40;1.57;;;;;;;16.52;62.82;100049.94;692424;28;1217;-52
2021/07/31 00:13:40;;;;;;;4.15;1.60;;;;;;;16.49;64.65;100044.78;691744;28;953;-55
2021/07/31 00:14:00;;;;;;;3.77;1.60;;;;;;;16.55;63.61;100045.47;691865;28;1374;-57
2021/07/31 00:14:21;;;;;;;3.03;1.42;;;;;;;16.56;63.62;100045.41;692751;28;1061;-54
2021/07/31 00:14:41;;;;;;;4.40;1.50;;;;;;;16.80;61.97;100042.72;692888;28;1084;-52
2021/07/31 00:15:02;;;;;;;3.42;1.30;;;;;;;16.92;62.07;100039.59;694783;28;1049;-53
2021/07/31 00:15:23;;;;;;;6.20;1.50;;;;;;;16.84;61.70;100041.66;691164;28;1467;-53
2021/07/31 00:15:44;;;;;;;4.05;1.40;;;;;;;16.88;61.90;100040.63;691482;28;4429;-56
2021/07/31 00:16:05;;;;;;;4.07;1.25;;;;;;;16.78;62.51;100036.63;689658;28;2134;-57
2021/07/31 00:16:25;;;;;;;4.60;1.50;;;;;;;16.71;62.27;100051.00;688259;28;3661;-55
2021/07/31 00:16:46;;;;;;;5.57;1.70;;;;;;;16.61;63.13;100045.22;690031;28;1229;-56
2021/07/31 00:17:08;;;;;;;3.83;1.50;;;;;;;16.68;63.01;100038.78;688624;28;1690;-53
2021/07/31 00:17:28;;;;;;;4.25;1.45;;;;;;;16.60;63.49;100046.13;691943;28;1103;-54
2021/07/31 00:17:49;;;;;;;3.80;1.50;;;;;;;16.55;63.61;100054.25;689436;28;1112;-53
2021/07/31 00:18:12;;;;;;;5.57;1.60;;;;;;;16.71;62.99;100043.06;691923;28;1105;-56
2021/07/31 00:18:32;;;;;;;3.83;1.40;;;;;;;16.86;61.75;100042.44;687852;28;4403;-52
2021/07/31 00:18:52;;;;;;;5.60;1.40;;;;;;;16.87;61.57;100038.06;688512;28;1247;-52
2021/07/31 00:19:13;;;;;;;5.70;1.50;;;;;;;16.90;61.83;100041.44;687727;28;1157;-52
2021/07/31 00:19:34;;;;;;;5.05;1.60;;;;;;;16.98;61.13;100047.25;689306;28;3425;-53
2021/07/31 00:19:55;;;;;;;3.45;1.38;;;;;;;16.97;61.11;100048.19;688958;28;1180;-55
2021/07/31 00:20:15;;;;;;;4.10;1.33;;;;;;;16.96;61.35;100049.13;688755;28;1657;-55
2021/07/31 00:20:36;;;;;;;5.23;1.50;;;;;;;16.93;61.19;100046.59;689938;28;1445;-53
2021/07/31 00:20:57;;;;;;;4.93;1.65;;;;;;;16.84;62.19;100044.31;689291;28;1267;-55
2021/07/31 00:21:17;;;;;;;5.00;1.70;;;;;;;16.66;62.18;100048.56;688926;28;969;-54
2021/07/31 00:21:38;;;;;;;5.22;1.50;;;;;;;16.61;62.82;100051.34;688934;28;4428;-54
2021/07/31 00:21:58;;;;;;;4.97;1.70;;;;;;;16.58;63.59;100043.56;691206;28;1680;-53
2021/07/31 00:22:19;;;;;;;4.45;1.70;;;;;;;16.57;63.18;100047.13;691509;28;977;-54
2021/07/31 00:22:39;;;;;;;4.23;1.57;;;;;;;16.64;63.06;100045.09;688614;28;3620;-57
2021/07/31 00:22:59;;;;;;;6.60;1.80;;;;;;;16.59;63.41;100050.56;691586;28;2658;-53
2021/07/31 00:23:20;;;;;;;6.00;1.80;;;;;;;16.52;64.36;100049.94;692919;28;1182;-53
2021/07/31 00:23:40;;;;;;;5.47;1.60;;;;;;;16.68;63.08;100051.97;693318;28;3407;-54
2021/07/31 00:24:01;;;;;;;5.60;1.65;;;;;;;16.75;62.46;100044.66;694471;28;1112;-57
2021/07/31 00:24:21;;;;;;;4.40;1.60;;;;;;;16.69;62.50;100051.91;694040;28;1242;-52
2021/07/31 00:24:41;;;;;;;4.20;1.40;;;;;;;16.60;62.94;100046.13;693582;28;4444;-55
2021/07/31 00:25:02;;;;;;;5.00;1.53;;;;;;;16.55;63.30;100048.97;694703;28;1337;-57
2021/07/31 00:25:22;;;;;;;5.03;1.60;;;;;;;16.46;63.90;100054.59;694443;28;1297;-54
2021/07/31 00:25:42;;;;;;;4.97;1.67;;;;;;;16.41;64.38;100048.66;695130;28;1017;-53
2021/07/31 00:26:03;;;;;;;5.07;1.60;;;;;;;16.39;64.30;100059.25;693514;28;3521;-55
2021/07/31 00:26:23;;;;;;;5.13;1.55;;;;;;;16.38;64.14;100054.03;694720;28;1837;-53
2021/07/31 00:26:44;;;;;;;5.03;1.63;;;;;;;16.38;64.76;100054.03;694120;28;1979;-54
2021/07/31 00:27:04;;;;;;;5.47;1.70;;;;;;;16.36;64.76;100053.25;694566;28;1181;-53
2021/07/31 00:27:25;;;;;;;5.33;1.67;;;;;;;16.34;64.79;100051.53;694904;28;1238;-55
2021/07/31 00:27:46;;;;;;;4.68;1.67;;;;;;;16.34;64.43;100058.59;691121;28;4469;-56
2021/07/31 00:28:07;;;;;;;5.22;1.50;;;;;;;16.30;63.98;100054.34;692366;28;1002;-52
2021/07/31 00:28:30;;;;;;;5.10;1.70;;;;;;;16.45;63.61;100047.63;691854;28;1129;-54
2021/07/31 00:28:51;;;;;;;4.17;1.57;;;;;;;16.62;62.96;100050.44;691155;28;3585;-55
2021/07/31 00:29:11;;;;;;;4.88;1.60;;;;;;;16.68;62.77;100055.50;691056;28;3507;-54
2021/07/31 00:29:31;;;;;;;4.73;1.57;;;;;;;16.67;63.32;100052.91;692861;28;1441;-56
2021/07/31 00:29:53;;;;;;;4.50;1.58;;;;;;;16.59;63.14;100050.56;691469;28;1474;-55
2021/07/31 00:30:13;;;;;;;4.68;1.63;;;;;;;16.68;62.65;100054.59;689643;28;1454;-54
2021/07/31 00:30:34;;;;;;;3.72;1.50;;;;;;;16.59;63.03;100045.28;687718;28;4496;-53
2021/07/31 00:30:54;;;;;;;5.10;1.60;;;;;;;16.54;63.21;100049.88;688988;28;1436;-55
2021/07/31 00:31:15;;;;;;;5.35;1.55;;;;;;;16.55;63.45;100051.59;688820;28;1100;-57
2021/07/31 00:31:35;;;;;;;4.20;1.50;;;;;;;16.43;64.66;100058.22;686559;28;1232;-57
2021/07/31 00:31:57;;;;;;;3.38;1.50;;;;;;;16.55;63.07;100043.69;688864;28;1036;-55
2021/07/31 00:32:17;;;;;;;3.07;1.40;;;;;;;16.58;63.09;100050.63;690639;28;3365;-54
2021/07/31 00:32:37;;;;;;;3.80;1.70;;;;;;;16.56;62.92;100053.34;691582;28;1421;-56
2021/07/31 00:32:58;;;;;;;4.23;1.70;;;;;;;16.60;63.02;100051.41;691117;28;956;-54
2021/07/31 00:33:19;;;;;;;5.07;1.73;;;;;;;16.54;63.07;100054.31;688222;28;1635;-53
2021/07/31 00:33:40;;;;;;;4.60;1.80;;;;;;;16.66;62.98;100056.47;691028;28;4603;-54
2021/07/31 00:34:00;;;;;;;4.93;1.75;;;;;;;16.58;62.91;100062.03;692055;28;1250;-54
2021/07/31 00:34:21;;;;;;;4.33;1.50;;;;;;;16.53;63.69;100056.06;691750;28;1067;-52
2021/07/31 00:34:41;;;;;;;3.75;1.45;;;;;;;16.58;62.92;100058.53;691892;28;1123;-53
2021/07/31 00:35:01;;;;;;;5.10;1.57;;;;;;;16.52;62.82;100051.75;687877;28;1543;-55
2021/07/31 00:35:22;;;;;;;5.63;1.60;;;;;;;16.60;63.04;100057.56;690405;28;1793;-55
2021/07/31 00:35:46;;;;;;;4.30;1.52;;;;;;;16.57;63.22;100056.81;688093;28;3820;-56
2021/07/31 00:36:06;;;;;;;4.83;1.60;;;;;;;16.45;64.92;100056.38;688509;28;1105;-52
2021/07/31 00:36:27;;;;;;;4.47;1.60;;;;;;;16.37;65.10;100060.25;688551;28;4680;-55
2021/07/31 00:36:47;;;;;;;4.93;1.70;;;;;;;16.47;64.85;100058.97;686122;28;1136;-56
2021/07/31 00:37:08;;;;;;;3.13;1.40;;;;;;;16.58;63.43;100048.84;688566;28;1425;-54
2021/07/31 00:37:28;;;;;;;3.80;1.63;;;;;;;16.60;63.39;100060.22;689143;28;1060;-53
2021/07/31 00:37:50;;;;;;;6.03;1.70;;;;;;;16.60;64.13;100057.56;690593;28;3236;-55
2021/07/31 00:38:11;;;;;;;5.45;1.50;;;;;;;16.68;62.69;100058.13;689483;28;4145;-56
2021/07/31 00:38:31;;;;;;;4.53;1.53;;;;;;;16.78;62.35;100055.09;690821;28;2515;-56
2021/07/31 00:38:52;;;;;;;5.00;1.60;;;;;;;16.79;62.04;100051.53;694403;28;2035;-52
2021/07/31 00:39:13;;;;;;;5.65;1.80;;;;;;;16.71;63.05;100053.63;693671;28;1190;-53
2021/07/31 00:39:38;;;;;;;4.57;1.70;;;;;;;16.66;62.61;100046.75;692902;28;4912;-57
2021/07/31 00:39:59;;;;;;;5.00;1.50;;;;;;;16.64;62.56;100053.91;694081;28;1143;-54
2021/07/31 00:40:19;;;;;;;3.90;1.40;;;;;;;16.55;62.95;100051.59;694446;28;1067;-56
2021/07/31 00:40:41;;;;;;;4.93;1.50;;;;;;;16.41;63.96;100053.94;694085;28;1371;-53
2021/07/31 00:41:01;;;;;;;5.43;1.63;;;;;;;16.47;63.94;100058.97;694328;28;1222;-52
2021/07/31 00:41:22;;;;;;;4.27;1.60;;;;;;;16.52;63.81;100049.09;694666;28;1040;-53
2021/07/31 00:41:42;;;;;;;4.18;1.60;;;;;;;16.56;63.15;100052.44;692627;28;1214;-53
2021/07/31 00:42:03;;;;;;;4.33;1.63;;;;;;;16.50;63.76;100056.19;691983;28;4017;-53
2021/07/31 00:42:24;;;;;;;3.85;1.60;;;;;;;16.47;63.59;100058.97;689278;28;1207;-52
2021/07/31 00:42:44;;;;;;;3.33;1.58;;;;;;;16.53;63.65;100056.06;689131;28;4401;-55
2021/07/31 00:43:06;;;;;;;4.68;1.75;;;;;;;16.62;62.72;100054.88;689596;28;1328;-52
2021/07/31 00:43:27;;;;;;;5.15;1.80;;;;;;;16.67;62.46;100052.91;690563;28;1316;-54
2021/07/31 00:43:47;;;;;;;5.27;1.70;;;;;;;16.68;62.75;100057.25;687948;28;1187;-57
2021/07/31 00:44:09;;;;;;;4.68;1.63;;;;;;;16.74;62.33;100056.16;688670;28;1875;-54
2021/07/31 00:44:29;;;;;;;3.53;1.57;;;;;;;16.73;62.38;100049.16;686371;28;1080;-55
2021/07/31 00:44:50;;;;;;;4.25;1.55;;;;;;;16.78;62.23;100055.09;686927;28;1345;-53
2021/07/31 00:45:12;;;;;;;4.20;1.60;;;;;;;16.75;62.45;100047.31;685143;28;2201;-53
2021/07/31 00:45:33;;;;;;;4.65;1.50;;;;;;;16.80;62.34;100048.00;682075;28;4360;-53
2021/07/31 00:45:54;;;;;;;3.67;1.50;;;;;;;16.77;62.18;100051.63;683606;28;1280;-54
2021/07/31 00:46:14;;;;;;;3.50;1.40;;;;;;;16.81;62.06;100052.34;684992;28;1939;-54
2021/07/31 00:46:35;;;;;;;3.53;1.40;;;;;;;16.75;62.52;100048.16;685088;28;1235;-55
2021/07/31 00:46:55;;;;;;;5.03;1.58;;;;;;;16.80;62.14;100050.63;686906;28;1246;-52
2021/07/31 00:47:16;;;;;;;5.53;1.50;;;;;;;16.67;63.16;100059.03;689256;28;1115;-55
2021/07/31 00:47:38;;;;;;;6.32;1.50;;;;;;;16.80;61.77;100045.34;689127;28;1088;-56
2021/07/31 00:47:58;;;;;;;4.40;1.50;;;;;;;16.74;61.94;100049.09;690536;28;1068;-56
2021/07/31 00:48:20;;;;;;;3.70;1.40;;;;;;;16.70;62.81;100058.06;686674;28;2410;-54
2021/07/31 00:48:41;;;;;;;5.15;1.50;;;;;;;16.81;62.21;100050.56;687545;28;4977;-54
2021/07/31 00:49:02;;;;;;;5.00;1.60;;;;;;;16.82;62.15;100048.78;691393;28;1277;-52
2021/07/31 00:49:24;;;;;;;3.53;1.60;;;;;;;16.82;61.82;100044.38;688364;28;1696;-52
2021/07/31 00:49:45;;;;;;;4.38;1.60;;;;;;;16.80;61.82;100054.13;688567;28;1048;-56
2021/07/31 00:50:06;;;;;;;4.13;1.50;;;;;;;16.70;62.31;100058.06;685880;28;1474;-56
2021/07/31 00:50:28;;;;;;;3.53;1.50;;;;;;;16.63;63.56;100051.31;683624;28;1758;-52
2021/07/31 00:50:48;;;;;;;3.83;1.42;;;;;;;16.59;63.67;100055.84;685988;28;1368;-55
2021/07/31 00:51:10;;;;;;;5.55;1.73;;;;;;;16.48;63.83;100064.16;685423;28;1104;-53
2021/07/31 00:51:30;;;;;;;8.13;2.00;;;;;;;16.57;62.94;100052.38;687745;28;5462;-55
2021/07/31 00:51:51;;;;;;;4.57;1.67;;;;;;;16.71;62.33;100058.91;683078;28;1263;-52
2021/07/31 00:52:11;;;;;;;5.37;1.53;;;;;;;16.64;62.77;100059.16;686052;28;1951;-51
2021/07/31 00:52:32;;;;;;;4.90;1.60;;;;;;;16.74;62.39;100058.78;685638;28;1504;-53
2021/07/31 00:52:54;;;;;;;5.07;1.50;;;;;;;16.78;62.06;100052.47;682828;28;1364;-54
2021/07/31 00:53:15;;;;;;;4.65;1.60;;;;;;;16.77;62.07;100058.69;680868;28;1250;-54
2021/07/31 00:53:36;;;;;;;4.78;1.80;;;;;;;16.71;62.24;100056.28;681009;28;1212;-51
2021/07/31 00:53:57;;;;;;;5.55;1.67;;;;;;;16.62;62.60;100052.22;686270;28;1100;-54
2021/07/31 00:54:18;;;;;;;4.87;1.60;;;;;;;16.67;62.43;100052.91;686831;28;1056;-53
2021/07/31 00:54:39;;;;;;;4.53;1.63;;;;;;;16.78;62.17;100052.47;688459;28;4668;-53
2021/07/31 00:55:00;;;;;;;5.03;1.50;;;;;;;16.74;61.86;100058.78;690174;28;3455;-54
2021/07/31 00:55:24;;;;;;;5.45;1.65;;;;;;;16.68;62.74;100052.84;687828;28;1451;-54
2021/07/31 00:55:47;;;;;;;4.40;1.70;;;;;;;16.56;63.45;100045.41;685746;28;1715;-54
2021/07/31 00:56:07;;;;;;;4.38;1.55;;;;;;;16.49;63.94;100050.06;683627;28;1524;-55
2021/07/31 00:56:28;;;;;;;5.20;1.70;;;;;;;16.55;63.75;100048.13;681171;28;1046;-54
2021/07/31 00:56:50;;;;;;;4.82;1.75;;;;;;;16.58;63.69;100048.84;683457;28;1066;-57
2021/07/31 00:57:14;;;;;;;4.05;1.55;;;;;;;16.64;63.82;100048.63;685802;28;1186;-51
2021/07/31 00:57:56;;;;;;;5.55;1.60;;;;;;;16.73;62.54;100046.53;686842;28;5121;-54
2021/07/31 00:58:24;;;;;;;5.50;1.83;;;;;;;16.66;62.70;100051.19;688607;28;1272;-54
2021/07/31 00:58:49;;;;;;;5.95;1.80;;;;;;;16.52;63.52;100051.75;687034;28;1345;-55
2021/07/31 00:59:13;;;;;;;5.30;1.70;;;;;;;16.55;63.46;100059.53;686143;28;1400;-57
2021/07/31 00:59:33;;;;;;;4.87;1.60;;;;;;;16.56;63.43;100049.81;682482;28;1623;-55
2021/07/31 00:59:54;;;;;;;4.72;1.63;;;;;;;16.66;63.16;100049.41;681006;29;1209;-52
2021/07/31 01:00:14;;;;;;;5.87;1.80;;;;;;;16.63;63.14;100052.16;683382;28;1410;-53
2021/07/31 01:00:35;;;;;;;5.00;1.73;;;;;;;16.66;63.42;100051.19;685291;28;4415;-53
2021/07/31 01:00:56;;;;;;;5.82;1.73;;;;;;;16.73;62.39;100049.16;689070;28;1372;-54
2021/07/31 01:01:16;;;;;;;4.85;1.60;;;;;;;16.69;62.67;100059.81;690157;28;3595;-53
2021/07/31 01:01:40;;;;;;;4.65;1.65;;;;;;;16.57;63.18;100054.19;690101;28;3506;-54
2021/07/31 01:02:00;;;;;;;4.63;1.60;;;;;;;16.51;63.50;100064.03;690626;28;1167;-55
2021/07/31 01:02:21;;;;;;;5.47;1.60;;;;;;;16.62;62.87;100054.88;688550;28;1411;-54
2021/07/31 01:02:41;;;;;;;7.43;1.90;;;;;;;16.73;63.17;100062.38;689354;28;1147;-52
2021/07/31 01:03:01;;;;;;;5.57;1.70;;;;;;;16.80;62.32;100059.41;685912;28;1451;-53
2021/07/31 01:03:22;;;;;;;4.40;1.70;;;;;;;16.81;62.14;100057.63;687353;28;1226;-55
2021/07/31 01:03:42;;;;;;;4.15;1.70;;;;;;;16.79;62.45;100051.53;686363;28;4933;-52
2021/07/31 01:04:03;;;;;;;4.47;1.70;;;;;;;16.73;62.27;100057.94;685910;28;1594;-52
2021/07/31 01:04:24;;;;;;;3.90;1.58;;;;;;;16.75;62.50;100050.78;686020;28;3264;-51
2021/07/31 01:04:44;;;;;;;4.10;1.70;;;;;;;16.69;62.36;100054.53;684382;28;2085;-55
2021/07/31 01:05:06;;;;;;;4.60;1.77;;;;;;;16.61;63.47;100061.91;687855;28;1411;-53
2021/07/31 01:05:28;;;;;;;4.93;1.52;;;;;;;16.52;63.57;100055.22;687143;28;1634;-53
2021/07/31 01:05:49;;;;;;;4.77;1.50;;;;;;;16.59;63.96;100049.72;687618;28;1194;-54
2021/07/31 01:06:10;;;;;;;5.35;1.70;;;;;;;16.53;64.24;100061.34;686741;28;1259;-55
2021/07/31 01:06:30;;;;;;;5.87;1.70;;;;;;;16.45;64.79;100059.03;684821;28;4927;-53
2021/07/31 01:06:51;;;;;;;3.80;1.77;;;;;;;16.46;64.67;100055.47;685413;28;1203;-56
2021/07/31 01:07:11;;;;;;;4.73;1.73;;;;;;;16.51;64.27;100052.66;683539;28;1232;-54
2021/07/31 01:07:34;;;;;;;5.50;1.73;;;;;;;16.64;63.06;100053.91;683820;28;1139;-51
2021/07/31 01:07:55;;;;;;;3.75;1.50;;;;;;;16.62;63.20;100049.59;684263;28;3486;-54
2021/07/31 01:08:17;;;;;;;4.85;1.55;;;;;;;16.64;63.50;100058.28;685977;28;1282;-52
2021/07/31 01:08:39;;;;;;;5.55;1.73;;;;;;;16.73;62.81;100050.00;688297;28;1551;-55
2021/07/31 01:09:00;;;;;;;4.60;1.57;;;;;;;16.78;62.32;100048.06;688526;28;1422;-53
2021/07/31 01:09:21;;;;;;;4.20;1.67;;;;;;;16.85;62.44;100046.03;686756;28;1918;-54
2021/07/31 01:09:42;;;;;;;4.40;1.58;;;;;;;16.84;62.05;100047.78;687948;28;4648;-52
2021/07/31 01:10:03;;;;;;;3.63;1.50;;;;;;;16.78;62.36;100055.09;689347;28;1066;-52
2021/07/31 01:10:26;;;;;;;3.67;1.50;;;;;;;16.69;63.01;100051.06;685705;28;1511;-53
2021/07/31 01:10:49;;;;;;;4.10;1.70;;;;;;;16.66;63.32;100056.47;685975;28;1042;-52
2021/07/31 01:11:12;;;;;;;4.38;1.70;;;;;;;16.71;62.69;100057.13;683131;28;2103;-53
2021/07/31 01:11:34;;;;;;;4.25;1.70;;;;;;;16.66;62.76;100053.81;680659;29;1468;-52
2021/07/31 01:11:57;;;;;;;3.30;1.42;;;;;;;16.76;62.58;100046.41;680635;29;1308;-55
2021/07/31 01:12:18;;;;;;;3.25;1.63;;;;;;;16.82;62.46;100054.06;684037;28;1284;-52
2021/07/31 01:12:40;;;;;;;3.23;1.53;;;;;;;16.85;62.72;100052.16;683972;28;4463;-53
2021/07/31 01:13:02;;;;;;;5.78;1.70;;;;;;;16.79;62.51;100051.53;687024;28;1369;-54
2021/07/31 01:13:24;;;;;;;5.40;1.60;;;;;;;16.82;62.28;100047.00;688762;28;1604;-56
2021/07/31 01:13:46;;;;;;;5.55;1.50;;;;;;;16.85;61.99;100059.22;687317;28;1513;-53
2021/07/31 01:14:07;;;;;;;4.18;1.55;;;;;;;16.82;62.10;100051.41;687517;28;2557;-52
2021/07/31 01:14:28;;;;;;;4.60;1.60;;;;;;;16.82;61.96;100054.94;686830;28;2197;-52
2021/07/31 01:14:49;;;;;;;5.00;1.65;;;;;;;16.85;61.91;100046.88;687773;28;1434;-54
2021/07/31 01:15:10;;;;;;;5.20;1.70;;;;;;;16.82;62.07;100052.28;688116;28;1397;-51
2021/07/31 01:15:31;;;;;;;4.18;1.60;;;;;;;16.81;61.87;100049.72;687477;28;5321;-51
2021/07/31 01:16:00;;;;;;;4.55;1.65;;;;;;;16.69;62.83;100051.91;688035;28;1005;-53
2021/07/31 01:16:21;;;;;;;4.63;1.80;;;;;;;16.57;63.09;100054.19;690021;28;945;-53
2021/07/31 01:16:41;;;;;;;4.80;1.80;;;;;;;16.50;63.16;100059.72;689708;28;1415;-54
2021/07/31 01:17:02;;;;;;;4.50;1.67;;;;;;;16.45;64.04;100056.38;689914;28;1210;-52
2021/07/31 01:17:22;;;;;;;4.32;1.60;;;;;;;16.44;64.36;100061.72;688889;28;2172;-54
2021/07/31 01:17:44;;;;;;;5.85;1.70;;;;;;;16.42;64.33;100053.00;687143;28;3682;-52
2021/07/31 01:18:06;;;;;;;5.45;1.80;;;;;;;16.41;64.70;100054.78;685983;28;1278;-55
2021/07/31 01:18:26;;;;;;;5.10;1.67;;;;;;;16.41;64.36;100057.41;683325;28;1477;-52
2021/07/31 01:18:47;;;;;;;3.95;1.70;;;;;;;16.36;64.46;100050.59;684496;28;4615;-52
2021/07/31 01:19:18;;;;;;;4.63;1.65;;;;;;;16.52;64.28;100054.38;685436;28;1248;-53
2021/07/31 01:19:39;;;;;;;5.45;1.70;;;;;;;16.47;64.10;100053.69;683183;28;1146;-52
2021/07/31 01:19:59;;;;;;;5.60;1.80;;;;;;;16.47;64.79;100054.53;684067;28;1418;-51
2021/07/31 01:20:20;;;;;;;5.10;1.95;;;;;;;16.52;63.81;100055.22;687454;28;1037;-56
2021/07/31 01:20:47;;;;;;;5.75;1.90;;;;;;;16.51;63.65;100058.78;686245;28;2611;-56
2021/07/31 01:21:09;;;;;;;5.32;1.80;;;;;;;16.41;63.59;100054.78;686276;28;3434;-53
2021/07/31 01:21:50;;;;;;;4.35;1.75;;;;;;;16.46;63.73;100055.47;687922;28;4483;-57
2021/07/31 01:22:27;;;;;;;4.00;1.75;;;;;;;16.55;63.27;100053.41;686302;28;868;-53
2021/07/31 01:22:52;;;;;;;3.60;1.67;;;;;;;16.71;62.83;100053.63;686546;28;1053;-52
2021/07/31 01:23:12;;;;;;;4.60;1.60;;;;;;;16.78;62.68;100049.81;685982;28;1212;-52
2021/07/31 01:23:33;;;;;;;5.03;1.60;;;;;;;16.69;63.08;100049.25;683648;28;1548;-52
2021/07/31 01:23:53;;;;;;;5.30;1.83;;;;;;;16.63;63.56;100052.16;680893;28;1988;-52
2021/07/31 01:24:16;;;;;;;3.85;1.50;;;;;;;16.69;62.92;100056.34;678807;28;3866;-53
2021/07/31 01:24:37;;;;;;;4.97;1.50;;;;;;;16.76;62.40;100049.03;682194;28;4450;-53
2021/07/31 01:24:57;;;;;;;5.03;1.70;;;;;;;16.78;62.32;100048.06;682269;28;1266;-53
2021/07/31 01:25:17;;;;;;;5.10;1.73;;;;;;;16.74;62.18;100049.09;681611;28;1209;-54
2021/07/31 01:25:39;;;;;;;5.43;1.80;;;;;;;16.64;63.13;100050.38;679541;29;1165;-53
2021/07/31 01:25:59;;;;;;;5.75;1.73;;;;;;;16.65;63.17;100054.75;680691;29;1346;-52
2021/07/31 01:26:20;;;;;;;7.53;1.70;;;;;;;16.69;62.94;100058.97;681358;28;1320;-54
2021/07/31 01:26:46;;;;;;;5.00;1.80;;;;;;;16.61;63.57;100056.63;683767;28;1057;-51
2021/07/31 01:27:06;;;;;;;4.40;1.90;;;;;;;16.54;63.38;100060.44;682546;28;2605;-56
2021/07/31 01:27:27;;;;;;;4.20;1.60;;;;;;;16.47;63.55;100066.88;681158;28;3722;-54
2021/07/31 01:27:47;;;;;;;5.00;1.63;;;;;;;16.44;64.28;100064.38;682991;28;4630;-52
2021/07/31 01:28:08;;;;;;;4.88;1.55;;;;;;;16.44;63.99;100062.56;682757;28;1664;-55
2021/07/31 01:28:29;;;;;;;3.33;1.67;;;;;;;16.48;64.04;100071.25;681126;29;970;-51
2021/07/31 01:28:49;;;;;;;4.27;1.60;;;;;;;16.39;64.65;100064.53;681219;28;1545;-52
2021/07/31 01:29:14;;;;;;;4.68;1.65;;;;;;;16.58;64.10;100064.66;681348;28;1965;-55
2021/07/31 01:29:35;;;;;;;5.53;1.80;;;;;;;16.66;62.85;100062.59;680919;28;1872;-52
2021/07/31 01:29:56;;;;;;;5.03;1.60;;;;;;;16.69;62.99;100058.97;683301;28;1311;-52
2021/07/31 01:30:16;;;;;;;3.97;1.60;;;;;;;16.76;62.78;100059.59;682934;28;3683;-53
2021/07/31 01:30:38;;;;;;;5.88;1.73;;;;;;;16.79;62.71;100055.03;683866;28;4550;-52
2021/07/31 01:30:59;;;;;;;5.03;1.60;;;;;;;16.75;62.66;100063.16;685756;28;1669;-58
2021/07/31 01:31:20;;;;;;;4.63;1.50;;;;;;;16.66;62.72;100065.22;682671;28;2427;-53
2021/07/31 01:31:41;;;;;;;3.42;1.50;;;;;;;16.60;63.02;100057.56;682305;28;1501;-53
2021/07/31 01:32:03;;;;;;;5.90;1.70;;;;;;;16.52;63.59;100064.94;683800;28;2262;-53
2021/07/31 01:32:23;;;;;;;4.78;1.60;;;;;;;16.52;63.76;100072.84;685870;28;1192;-57
2021/07/31 01:32:43;;;;;;;4.45;1.60;;;;;;;16.52;63.67;100070.19;686942;28;986;-52
2021/07/31 01:33:04;;;;;;;4.93;1.90;;;;;;;16.63;62.96;100064.50;687133;28;1239;-51
2021/07/31 01:33:24;;;;;;;4.78;1.73;;;;;;;16.60;62.81;100062.84;689294;28;1251;-53
2021/07/31 01:33:47;;;;;;;4.10;1.80;;;;;;;16.63;62.87;100064.50;687860;28;4685;-55
2021/07/31 01:34:07;;;;;;;5.57;1.80;;;;;;;16.57;63.13;100059.47;690269;28;1046;-52
2021/07/31 01:34:28;;;;;;;4.90;1.65;;;;;;;16.62;63.15;100061.00;688761;28;1341;-52
2021/07/31 01:34:53;;;;;;;4.68;1.60;;;;;;;16.71;62.97;100064.19;688665;28;1211;-52
2021/07/31 01:35:13;;;;;;;4.97;1.63;;;;;;;16.49;64.53;100059.75;688633;28;1214;-52
2021/07/31 01:35:35;;;;;;;5.18;1.80;;;;;;;16.43;64.72;100070.53;689626;28;986;-51
2021/07/31 01:36:06;;;;;;;4.20;1.55;;;;;;;16.56;63.38;100071.81;688589;28;1210;-56
2021/07/31 01:36:33;;;;;;;4.93;1.55;;;;;;;16.66;62.76;100065.22;689685;28;4729;-53
2021/07/31 01:36:53;;;;;;;5.13;1.53;;;;;;;16.64;62.89;100069.72;691519;28;1319;-51
2021/07/31 01:37:14;;;;;;;3.72;1.70;;;;;;;16.67;62.98;100064.31;691375;28;2126;-52
2021/07/31 01:37:35;;;;;;;4.70;1.75;;;;;;;16.69;62.46;100062.47;688501;28;1669;-51
2021/07/31 01:37:56;;;;;;;5.13;1.65;;;;;;;16.62;63.11;100066.28;688270;28;1100;-52
2021/07/31 01:38:16;;;;;;;3.55;1.60;;;;;;;16.61;63.23;100058.41;688320;28;1220;-51
2021/07/31 01:38:37;;;;;;;4.88;1.65;;;;;;;16.60;62.98;100065.50;686857;28;1034;-55
2021/07/31 01:38:59;;;;;;;10.13;2.10;;;;;;;16.50;63.56;100067.63;689347;28;1349;-52
2021/07/31 01:39:19;;;;;;;6.00;1.73;;;;;;;16.41;64.75;100067.13;684987;28;3417;-55
2021/07/31 01:39:41;;;;;;;4.50;1.60;;;;;;;16.35;64.71;100062.91;682702;28;4504;-52
2021/07/31 01:40:03;;;;;;;4.68;1.80;;;;;;;16.48;63.38;100064.16;683672;28;1469;-52
2021/07/31 01:40:24;;;;;;;4.00;1.52;;;;;;;16.52;63.66;100064.94;683338;28;2142;-54
2021/07/31 01:40:45;;;;;;;4.57;1.83;;;;;;;16.45;63.89;100068.72;681917;28;1216;-51
2021/07/31 01:41:06;;;;;;;4.55;1.73;;;;;;;16.42;63.51;100060.91;684231;28;1779;-54
2021/07/31 01:41:27;;;;;;;3.57;1.60;;;;;;;16.31;63.95;100063.94;686181;28;1133;-53
2021/07/31 01:41:48;;;;;;;6.30;1.90;;;;;;;16.40;64.40;100054.84;686386;28;1754;-52